createdAt,value
2022-10-04T00:00:39.200Z,8.20
2022-10-04T00:01:39.357Z,8.15
2022-10-04T00:02:39.191Z,8.16
2022-10-04T00:03:39.149Z,8.08
2022-10-04T00:04:39.160Z,8.05
2022-10-04T00:05:39.127Z,8.11
2022-10-04T00:06:39.143Z,8.10
2022-10-04T00:07:39.104Z,8.04
2022-10-04T00:08:39.098Z,8.04
2022-10-04T00:09:39.081Z,7.98
2022-10-04T00:10:39.073Z,7.98
2022-10-04T00:11:39.192Z,8.01
2022-10-04T00:12:39.049Z,8.00
2022-10-04T00:13:39.060Z,7.98
2022-10-04T00:14:39.026Z,7.92
2022-10-04T00:15:39.011Z,7.90
2022-10-04T00:16:39.214Z,7.95
2022-10-04T00:17:38.990Z,7.89
2022-10-04T00:18:38.979Z,7.92
2022-10-04T00:19:38.989Z,7.87
2022-10-04T00:20:38.957Z,7.86
2022-10-04T00:21:39.067Z,7.80
2022-10-04T00:22:38.960Z,7.82
2022-10-04T00:23:38.923Z,7.74
2022-10-04T00:24:38.918Z,7.80
2022-10-04T00:25:38.899Z,7.75
2022-10-04T00:26:38.904Z,7.80
2022-10-04T00:27:39.081Z,7.75
2022-10-04T00:28:38.871Z,7.80
2022-10-04T00:29:38.854Z,7.80
2022-10-04T00:30:38.873Z,7.85
2022-10-04T00:31:38.938Z,7.85
2022-10-04T00:32:39.119Z,7.82
2022-10-04T00:33:38.810Z,7.87
2022-10-04T00:34:38.802Z,7.85
2022-10-04T00:35:38.784Z,7.83
2022-10-04T00:36:38.775Z,7.90
2022-10-04T00:37:38.786Z,7.83
2022-10-04T00:38:38.753Z,7.83
2022-10-04T00:39:38.742Z,7.85
2022-10-04T00:40:38.749Z,7.80
2022-10-04T00:41:38.720Z,7.80
2022-10-04T00:42:38.706Z,7.75
2022-10-04T00:43:38.716Z,7.75
2022-10-04T00:44:38.683Z,7.83
2022-10-04T00:45:38.676Z,7.75
2022-10-04T00:46:38.825Z,7.80
2022-10-04T00:47:38.668Z,7.90
2022-10-04T00:48:38.661Z,7.90
2022-10-04T00:49:38.648Z,7.89
2022-10-04T00:50:38.638Z,7.87
2022-10-04T00:51:38.626Z,7.82
2022-10-04T00:52:38.593Z,7.75
2022-10-04T00:53:38.601Z,7.82
2022-10-04T00:54:38.570Z,7.82
2022-10-04T00:55:38.579Z,7.75
2022-10-04T00:56:38.551Z,7.79
2022-10-04T00:57:38.536Z,7.90
2022-10-04T00:58:38.533Z,7.92
2022-10-04T00:59:38.516Z,7.79
2022-10-04T01:00:38.663Z,7.79
2022-10-04T01:01:38.517Z,7.79
2022-10-04T01:02:38.578Z,7.92
2022-10-04T01:03:38.465Z,7.93
2022-10-04T01:04:38.606Z,7.82
2022-10-04T01:05:38.468Z,7.86
2022-10-04T01:06:38.433Z,7.80
2022-10-04T01:07:38.443Z,7.89
2022-10-04T01:08:38.414Z,7.87
2022-10-04T01:09:38.397Z,7.89
2022-10-04T01:10:38.393Z,7.86
2022-10-04T01:11:38.389Z,7.87
2022-10-04T01:12:38.389Z,7.86
2022-10-04T01:13:38.351Z,7.85
2022-10-04T01:14:38.343Z,7.83
2022-10-04T01:15:38.365Z,7.93
2022-10-04T01:16:38.319Z,7.90
2022-10-04T01:17:38.307Z,7.93
2022-10-04T01:18:38.316Z,7.97
2022-10-04T01:19:38.283Z,7.97
2022-10-04T01:20:38.386Z,7.93
2022-10-04T01:21:38.263Z,8.01
2022-10-04T01:22:38.275Z,8.00
2022-10-04T01:23:38.242Z,8.04
2022-10-04T01:24:38.232Z,8.05
2022-10-04T01:25:38.215Z,8.04
2022-10-04T01:26:38.341Z,8.00
2022-10-04T01:27:38.215Z,8.10
2022-10-04T01:28:38.206Z,8.16
2022-10-04T01:29:38.170Z,8.05
2022-10-04T01:30:38.165Z,8.08
2022-10-04T01:31:38.250Z,8.07
2022-10-04T01:32:38.137Z,8.05
2022-10-04T01:33:38.128Z,8.02
2022-10-04T01:34:38.135Z,7.98
2022-10-04T01:35:38.100Z,7.95
2022-10-04T01:36:38.164Z,7.93
2022-10-04T01:37:38.078Z,8.08
2022-10-04T01:38:38.069Z,7.97
2022-10-04T01:39:38.082Z,7.92
2022-10-04T01:40:38.047Z,7.93
2022-10-04T01:41:38.040Z,7.89
2022-10-04T01:42:38.019Z,7.90
2022-10-04T01:43:38.012Z,7.95
2022-10-04T01:44:37.995Z,8.02
2022-10-04T01:45:38.025Z,7.98
2022-10-04T01:46:38.116Z,8.01
2022-10-04T01:47:37.967Z,8.00
2022-10-04T01:48:37.950Z,8.02
2022-10-04T01:49:37.962Z,8.04
2022-10-04T01:50:37.931Z,8.02
2022-10-04T01:51:37.922Z,8.12
2022-10-04T01:52:37.924Z,8.18
2022-10-04T01:53:37.896Z,8.12
2022-10-04T01:54:37.909Z,8.12
2022-10-04T01:55:37.878Z,8.12
2022-10-04T01:56:37.993Z,8.15
2022-10-04T01:57:37.853Z,8.23
2022-10-04T01:58:37.838Z,8.19
2022-10-04T01:59:37.835Z,8.22
2022-10-04T02:00:37.853Z,8.18
2022-10-04T02:01:37.907Z,8.18
2022-10-04T02:02:37.840Z,8.23
2022-10-04T02:03:37.916Z,8.18
2022-10-04T02:04:37.803Z,8.20
2022-10-04T02:05:37.760Z,8.20
2022-10-04T02:06:37.831Z,8.18
2022-10-04T02:07:37.740Z,8.22
2022-10-04T02:08:37.754Z,8.20
2022-10-04T02:09:37.736Z,8.19
2022-10-04T02:10:43.003Z,8.18
2022-10-04T02:11:38.691Z,8.34
2022-10-04T02:12:37.679Z,8.22
2022-10-04T02:13:37.671Z,8.19
2022-10-04T02:14:37.661Z,8.18
2022-10-04T02:15:37.730Z,8.25
2022-10-04T02:16:37.691Z,8.19
2022-10-04T02:17:37.623Z,8.20
2022-10-04T02:18:37.613Z,8.29
2022-10-04T02:19:37.619Z,8.33
2022-10-04T02:20:37.641Z,8.28
2022-10-04T02:21:37.578Z,8.28
2022-10-04T02:22:37.565Z,8.26
2022-10-04T02:23:37.558Z,8.23
2022-10-04T02:24:37.661Z,8.19
2022-10-04T02:25:37.556Z,8.16
2022-10-04T02:26:37.563Z,8.25
2022-10-04T02:27:37.509Z,8.19
2022-10-04T02:28:37.501Z,8.19
2022-10-04T02:29:37.508Z,8.18
2022-10-04T02:30:37.503Z,8.15
2022-10-04T02:31:37.545Z,8.15
2022-10-04T02:32:37.455Z,8.15
2022-10-04T02:33:37.443Z,8.11
2022-10-04T02:34:37.434Z,8.12
2022-10-04T02:35:37.440Z,8.20
2022-10-04T02:36:37.439Z,8.10
2022-10-04T02:37:37.416Z,8.16
2022-10-04T02:38:37.386Z,8.11
2022-10-04T02:39:37.371Z,8.10
2022-10-04T02:40:37.402Z,8.01
2022-10-04T02:41:37.350Z,8.08
2022-10-04T02:42:37.343Z,8.15
2022-10-04T02:43:37.359Z,8.16
2022-10-04T02:44:37.319Z,8.07
2022-10-04T02:45:37.326Z,8.04
2022-10-04T02:46:37.475Z,8.11
2022-10-04T02:47:37.284Z,8.02
2022-10-04T02:48:37.304Z,8.04
2022-10-04T02:49:37.283Z,8.05
2022-10-04T02:50:37.250Z,8.01
2022-10-04T02:51:37.261Z,8.00
2022-10-04T02:52:37.247Z,8.02
2022-10-04T02:53:37.217Z,8.00
2022-10-04T02:54:37.205Z,8.11
2022-10-04T02:55:37.194Z,8.01
2022-10-04T02:56:37.273Z,8.05
2022-10-04T02:57:37.171Z,8.10
2022-10-04T02:58:37.189Z,8.12
2022-10-04T02:59:37.146Z,8.12
2022-10-04T03:00:37.194Z,8.11
2022-10-04T03:01:37.161Z,8.19
2022-10-04T03:02:37.170Z,8.11
2022-10-04T03:03:37.156Z,8.12
2022-10-04T03:04:37.124Z,8.18
2022-10-04T03:05:37.078Z,8.16
2022-10-04T03:06:37.169Z,8.19
2022-10-04T03:07:37.053Z,8.22
2022-10-04T03:08:37.045Z,8.20
2022-10-04T03:09:37.053Z,8.22
2022-10-04T03:10:37.020Z,8.18
2022-10-04T03:11:37.028Z,8.16
2022-10-04T03:12:37.014Z,8.18
2022-10-04T03:13:36.987Z,8.20
2022-10-04T03:14:36.978Z,8.22
2022-10-04T03:15:36.964Z,8.07
2022-10-04T03:16:36.998Z,8.23
2022-10-04T03:17:36.939Z,8.18
2022-10-04T03:18:36.928Z,8.16
2022-10-04T03:19:36.917Z,8.12
2022-10-04T03:20:36.906Z,8.15
2022-10-04T03:21:36.913Z,8.18
2022-10-04T03:22:36.903Z,8.12
2022-10-04T03:23:36.871Z,8.07
2022-10-04T03:24:36.861Z,8.04
2022-10-04T03:25:36.850Z,8.07
2022-10-04T03:26:36.842Z,8.04
2022-10-04T03:27:36.847Z,8.12
2022-10-04T03:28:36.989Z,8.10
2022-10-04T03:29:36.805Z,8.12
2022-10-04T03:30:36.802Z,8.11
2022-10-04T03:31:36.816Z,8.15
2022-10-04T03:32:36.792Z,8.18
2022-10-04T03:33:36.759Z,8.16
2022-10-04T03:34:36.775Z,8.11
2022-10-04T03:35:36.741Z,8.15
2022-10-04T03:36:36.729Z,8.12
2022-10-04T03:37:36.719Z,8.16
2022-10-04T03:38:36.711Z,8.12
2022-10-04T03:39:36.792Z,8.15
2022-10-04T03:40:36.692Z,8.11
2022-10-04T03:41:36.718Z,8.18
2022-10-04T03:42:36.682Z,8.18
2022-10-04T03:43:36.810Z,8.19
2022-10-04T03:44:36.675Z,8.18
2022-10-04T03:45:36.731Z,8.16
2022-10-04T03:46:36.724Z,8.12
2022-10-04T03:47:36.601Z,8.16
2022-10-04T03:48:36.623Z,8.25
2022-10-04T03:49:36.578Z,8.25
2022-10-04T03:50:36.586Z,8.30
2022-10-04T03:51:36.611Z,8.36
2022-10-04T03:52:36.548Z,8.28
2022-10-04T03:53:36.555Z,8.33
2022-10-04T03:54:36.539Z,8.26
2022-10-04T03:55:36.515Z,8.33
2022-10-04T03:56:36.507Z,8.33
2022-10-04T03:57:36.510Z,8.33
2022-10-04T03:58:36.485Z,8.36
2022-10-04T03:59:36.470Z,8.25
2022-10-04T04:00:36.474Z,8.34
2022-10-04T04:01:36.534Z,8.28
2022-10-04T04:02:36.576Z,8.30
2022-10-04T04:03:36.421Z,8.28
2022-10-04T04:04:36.416Z,8.30
2022-10-04T04:05:36.401Z,8.33
2022-10-04T04:06:36.440Z,8.30
2022-10-04T04:07:36.401Z,8.22
2022-10-04T04:08:36.399Z,8.36
2022-10-04T04:09:36.363Z,8.29
2022-10-04T04:10:36.345Z,8.29
2022-10-04T04:11:36.354Z,8.25
2022-10-04T04:12:36.327Z,8.34
2022-10-04T04:13:36.333Z,8.30
2022-10-04T04:14:36.299Z,8.30
2022-10-04T04:15:36.290Z,8.33
2022-10-04T04:16:36.500Z,8.30
2022-10-04T04:17:36.269Z,8.34
2022-10-04T04:18:36.277Z,8.26
2022-10-04T04:19:36.265Z,8.36
2022-10-04T04:20:36.231Z,8.29
2022-10-04T04:21:36.219Z,8.33
2022-10-04T04:22:36.218Z,8.33
2022-10-04T04:23:36.197Z,8.33
2022-10-04T04:24:36.208Z,8.33
2022-10-04T04:25:36.196Z,8.44
2022-10-04T04:26:36.163Z,8.30
2022-10-04T04:27:36.149Z,8.40
2022-10-04T04:28:36.202Z,8.38
2022-10-04T04:29:36.150Z,8.43
2022-10-04T04:30:36.122Z,8.41
2022-10-04T04:31:36.182Z,8.40
2022-10-04T04:32:36.111Z,8.43
2022-10-04T04:33:36.102Z,8.37
2022-10-04T04:34:36.073Z,8.43
2022-10-04T04:35:36.078Z,8.43
2022-10-04T04:36:36.051Z,8.47
2022-10-04T04:37:36.036Z,8.44
2022-10-04T04:38:36.056Z,8.44
2022-10-04T04:39:36.036Z,8.47
2022-10-04T04:40:36.002Z,8.50
2022-10-04T04:41:36.013Z,8.48
2022-10-04T04:42:35.980Z,8.50
2022-10-04T04:43:35.969Z,8.55
2022-10-04T04:44:35.959Z,8.52
2022-10-04T04:45:36.121Z,8.48
2022-10-04T04:46:35.992Z,8.52
2022-10-04T04:47:35.924Z,8.52
2022-10-04T04:48:35.929Z,8.55
2022-10-04T04:49:35.899Z,8.52
2022-10-04T04:50:35.888Z,8.56
2022-10-04T04:51:36.054Z,8.58
2022-10-04T04:52:35.889Z,8.50
2022-10-04T04:53:35.854Z,8.58
2022-10-04T04:54:35.867Z,8.56
2022-10-04T04:55:56.434Z,8.59
2022-10-04T04:56:36.823Z,8.53
2022-10-04T04:57:35.827Z,8.61
2022-10-04T04:58:35.800Z,8.58
2022-10-04T04:59:35.784Z,8.63
2022-10-04T05:00:35.780Z,8.53
2022-10-04T05:01:35.790Z,8.50
2022-10-04T05:02:35.829Z,8.53
2022-10-04T05:03:35.738Z,8.47
2022-10-04T05:04:35.843Z,8.55
2022-10-04T05:05:35.717Z,8.50
2022-10-04T05:06:35.783Z,8.63
2022-10-04T05:07:35.716Z,8.65
2022-10-04T05:08:40.412Z,8.62
2022-10-04T05:09:36.669Z,8.52
2022-10-04T05:10:35.660Z,8.48
2022-10-04T05:11:35.649Z,8.48
2022-10-04T05:12:35.663Z,8.44
2022-10-04T05:13:35.648Z,8.53
2022-10-04T05:14:35.617Z,8.59
2022-10-04T05:15:35.601Z,8.48
2022-10-04T05:16:35.629Z,8.48
2022-10-04T05:17:35.580Z,8.53
2022-10-04T05:18:35.588Z,8.53
2022-10-04T05:19:35.562Z,8.53
2022-10-04T05:20:35.566Z,8.58
2022-10-04T05:21:38.541Z,8.55
2022-10-04T05:22:36.542Z,8.50
2022-10-04T05:23:35.510Z,8.59
2022-10-04T05:24:35.499Z,8.45
2022-10-04T05:25:35.486Z,8.48
2022-10-04T05:26:35.500Z,8.55
2022-10-04T05:27:35.484Z,8.48
2022-10-04T05:28:35.526Z,8.53
2022-10-04T05:29:35.443Z,8.48
2022-10-04T05:30:35.433Z,8.56
2022-10-04T05:31:35.507Z,8.50
2022-10-04T05:32:35.407Z,8.52
2022-10-04T05:33:35.396Z,8.53
2022-10-04T05:34:35.387Z,8.59
2022-10-04T05:35:35.375Z,8.52
2022-10-04T05:36:35.378Z,8.61
2022-10-04T05:37:35.376Z,8.56
2022-10-04T05:38:35.341Z,8.52
2022-10-04T05:39:35.327Z,8.58
2022-10-04T05:40:35.316Z,8.59
2022-10-04T05:41:35.322Z,8.62
2022-10-04T05:42:35.293Z,8.61
2022-10-04T05:43:35.311Z,8.61
2022-10-04T05:44:35.292Z,8.66
2022-10-04T05:45:35.298Z,8.68
2022-10-04T05:46:35.252Z,8.66
2022-10-04T05:47:35.236Z,8.66
2022-10-04T05:48:35.261Z,8.77
2022-10-04T05:49:35.237Z,8.74
2022-10-04T05:50:35.205Z,8.76
2022-10-04T05:51:35.192Z,8.83
2022-10-04T05:52:35.201Z,8.74
2022-10-04T05:53:35.197Z,8.83
2022-10-04T05:54:35.158Z,8.83
2022-10-04T05:55:35.149Z,8.98
2022-10-04T05:56:35.137Z,8.94
2022-10-04T05:57:35.158Z,8.94
2022-10-04T05:58:35.113Z,8.96
2022-10-04T05:59:35.122Z,8.95
2022-10-04T06:00:35.091Z,8.92
2022-10-04T06:01:35.191Z,8.96
2022-10-04T06:02:35.133Z,8.99
2022-10-04T06:03:35.063Z,8.95
2022-10-04T06:04:35.084Z,9.04
2022-10-04T06:05:35.035Z,8.96
2022-10-04T06:06:35.045Z,8.92
2022-10-04T06:07:35.008Z,9.01
2022-10-04T06:08:35.078Z,9.02
2022-10-04T06:09:35.009Z,9.01
2022-10-04T06:10:34.976Z,9.08
2022-10-04T06:11:34.963Z,9.02
2022-10-04T06:12:34.953Z,9.04
2022-10-04T06:13:34.941Z,9.05
2022-10-04T06:14:34.945Z,9.04
2022-10-04T06:15:34.942Z,8.99
2022-10-04T06:16:34.964Z,9.08
2022-10-04T06:17:34.907Z,9.08
2022-10-04T06:18:34.889Z,9.05
2022-10-04T06:19:34.901Z,9.04
2022-10-04T06:20:34.874Z,8.98
2022-10-04T06:21:34.852Z,9.05
2022-10-04T06:22:34.872Z,9.08
2022-10-04T06:23:34.826Z,9.10
2022-10-04T06:24:34.946Z,9.10
2022-10-04T06:25:34.824Z,9.11
2022-10-04T06:26:34.795Z,9.18
2022-10-04T06:27:34.785Z,9.21
2022-10-04T06:28:34.919Z,9.24
2022-10-04T06:29:34.764Z,9.31
2022-10-04T06:30:34.808Z,9.35
2022-10-04T06:31:34.759Z,9.36
2022-10-04T06:32:34.735Z,9.33
2022-10-04T06:33:34.715Z,9.33
2022-10-04T06:34:34.707Z,9.43
2022-10-04T06:35:34.721Z,9.42
2022-10-04T06:36:35.510Z,9.53
2022-10-04T06:37:34.979Z,9.51
2022-10-04T06:38:34.689Z,9.53
2022-10-04T06:39:34.685Z,9.53
2022-10-04T06:40:34.661Z,9.51
2022-10-04T06:41:34.632Z,9.50
2022-10-04T06:42:34.662Z,9.53
2022-10-04T06:43:34.641Z,9.51
2022-10-04T06:44:34.597Z,9.50
2022-10-04T06:45:34.589Z,9.54
2022-10-04T06:46:34.678Z,9.50
2022-10-04T06:47:34.562Z,9.54
2022-10-04T06:48:34.550Z,9.51
2022-10-04T06:49:34.565Z,9.57
2022-10-04T06:50:34.529Z,9.54
2022-10-04T06:51:34.545Z,9.54
2022-10-04T06:52:34.505Z,9.47
2022-10-04T06:53:34.622Z,9.50
2022-10-04T06:54:34.505Z,9.47
2022-10-04T06:55:34.482Z,9.50
2022-10-04T06:56:34.479Z,9.58
2022-10-04T06:57:34.733Z,9.50
2022-10-04T06:58:34.440Z,9.50
2022-10-04T06:59:34.430Z,9.51
2022-10-04T07:00:34.417Z,9.48
2022-10-04T07:01:34.466Z,9.48
2022-10-04T07:02:34.478Z,9.48
2022-10-04T07:03:34.386Z,9.51
2022-10-04T07:04:50.261Z,9.51
2022-10-04T07:05:35.384Z,9.51
2022-10-04T07:06:34.351Z,9.53
2022-10-04T07:07:34.343Z,9.48
2022-10-04T07:08:34.401Z,9.51
2022-10-04T07:09:34.321Z,9.50
2022-10-04T07:10:34.329Z,9.48
2022-10-04T07:11:34.300Z,9.51
2022-10-04T07:12:34.302Z,9.50
2022-10-04T07:13:34.299Z,9.58
2022-10-04T07:14:34.273Z,9.57
2022-10-04T07:15:34.326Z,9.61
2022-10-04T07:16:34.243Z,9.66
2022-10-04T07:17:34.232Z,9.64
2022-10-04T07:18:34.257Z,9.68
2022-10-04T07:19:34.209Z,9.74
2022-10-04T07:20:34.198Z,9.79
2022-10-04T07:21:34.208Z,9.83
2022-10-04T07:22:34.194Z,9.89
2022-10-04T07:23:34.165Z,9.87
2022-10-04T07:24:34.152Z,9.84
2022-10-04T07:25:34.143Z,9.91
2022-10-04T07:26:34.137Z,9.99
2022-10-04T07:27:34.140Z,9.96
2022-10-04T07:28:34.272Z,10.07
2022-10-04T07:29:36.693Z,9.94
2022-10-04T07:30:34.126Z,10.02
2022-10-04T07:31:34.101Z,10.02
2022-10-04T07:32:34.063Z,10.05
2022-10-04T07:33:34.053Z,10.12
2022-10-04T07:34:34.060Z,10.15
2022-10-04T07:35:34.035Z,10.26
2022-10-04T07:36:34.017Z,10.27
2022-10-04T07:37:34.010Z,10.29
2022-10-04T07:38:33.995Z,10.34
2022-10-04T07:39:34.007Z,10.38
2022-10-04T07:40:33.977Z,10.44
2022-10-04T07:41:33.964Z,10.34
2022-10-04T07:42:33.951Z,10.47
2022-10-04T07:43:33.943Z,10.48
2022-10-04T07:44:33.966Z,10.63
2022-10-04T07:45:33.918Z,10.79
2022-10-04T07:46:33.920Z,10.78
2022-10-04T07:47:33.926Z,10.86
2022-10-04T07:48:33.884Z,10.92
2022-10-04T07:49:33.896Z,10.99
2022-10-04T07:50:33.865Z,11.07
2022-10-04T07:51:33.858Z,11.07
2022-10-04T07:52:33.859Z,11.22
2022-10-04T07:53:33.831Z,11.33
2022-10-04T07:54:33.817Z,11.25
2022-10-04T07:55:33.833Z,11.33
2022-10-04T07:56:33.798Z,11.49
2022-10-04T07:57:33.787Z,11.60
2022-10-04T07:58:33.795Z,11.70
2022-10-04T07:59:33.762Z,11.64
2022-10-04T08:00:33.851Z,11.83
2022-10-04T08:01:33.799Z,11.83
2022-10-04T08:02:33.911Z,11.86
2022-10-04T08:03:33.793Z,11.95
2022-10-04T08:04:33.707Z,11.94
2022-10-04T08:05:33.696Z,12.02
2022-10-04T08:06:33.682Z,12.02
2022-10-04T08:07:33.674Z,12.12
2022-10-04T08:08:33.969Z,11.91
2022-10-04T08:09:33.671Z,11.88
2022-10-04T08:10:33.641Z,11.91
2022-10-04T08:11:33.628Z,12.07
2022-10-04T08:12:33.616Z,12.04
2022-10-04T08:13:33.631Z,12.10
2022-10-04T08:14:33.593Z,12.20
2022-10-04T08:15:33.650Z,12.29
2022-10-04T08:16:33.593Z,12.38
2022-10-04T08:17:33.561Z,12.39
2022-10-04T08:18:33.549Z,12.46
2022-10-04T08:19:33.542Z,12.39
2022-10-04T08:20:33.551Z,12.53
2022-10-04T08:21:33.518Z,12.64
2022-10-04T08:22:33.528Z,12.72
2022-10-04T08:23:33.510Z,12.74
2022-10-04T08:24:33.505Z,12.74
2022-10-04T08:25:33.474Z,12.90
2022-10-04T08:26:33.466Z,12.95
2022-10-04T08:27:33.451Z,13.03
2022-10-04T08:28:33.485Z,13.11
2022-10-04T08:29:33.428Z,13.12
2022-10-04T08:30:33.436Z,13.36
2022-10-04T08:31:33.477Z,13.42
2022-10-04T08:32:33.448Z,13.57
2022-10-04T08:33:33.382Z,13.60
2022-10-04T08:34:33.374Z,13.64
2022-10-04T08:35:33.368Z,13.66
2022-10-04T08:36:33.373Z,13.79
2022-10-04T08:37:33.343Z,13.89
2022-10-04T08:38:33.327Z,13.97
2022-10-04T08:39:35.323Z,14.03
2022-10-04T08:40:33.327Z,13.92
2022-10-04T08:41:33.294Z,13.97
2022-10-04T08:42:33.309Z,14.07
2022-10-04T08:43:33.271Z,14.10
2022-10-04T08:44:33.267Z,14.02
2022-10-04T08:45:33.273Z,14.02
2022-10-04T08:46:33.299Z,13.97
2022-10-04T08:47:33.226Z,13.96
2022-10-04T08:48:33.252Z,13.89
2022-10-04T08:49:33.204Z,13.96
2022-10-04T08:50:33.217Z,13.97
2022-10-04T08:51:33.183Z,14.28
2022-10-04T08:52:33.168Z,14.39
2022-10-04T08:53:33.162Z,14.45
2022-10-04T08:54:33.170Z,14.42
2022-10-04T08:55:33.171Z,14.47
2022-10-04T08:56:33.131Z,14.37
2022-10-04T08:57:33.118Z,14.29
2022-10-04T08:58:33.110Z,14.21
2022-10-04T08:59:33.113Z,14.32
2022-10-04T09:00:33.082Z,14.24
2022-10-04T09:01:33.169Z,14.15
2022-10-04T09:02:33.199Z,14.18
2022-10-04T09:03:33.048Z,14.18
2022-10-04T09:04:33.118Z,14.33
2022-10-04T09:05:33.048Z,14.15
2022-10-04T09:06:33.013Z,14.29
2022-10-04T09:07:33.006Z,14.32
2022-10-04T09:08:33.014Z,14.28
2022-10-04T09:09:33.003Z,14.35
2022-10-04T09:10:32.971Z,14.39
2022-10-04T09:11:32.960Z,14.60
2022-10-04T09:12:32.971Z,14.84
2022-10-04T09:13:32.938Z,14.94
2022-10-04T09:14:32.925Z,15.03
2022-10-04T09:15:32.991Z,15.23
2022-10-04T09:16:32.924Z,15.28
2022-10-04T09:17:33.064Z,15.38
2022-10-04T09:18:32.880Z,15.35
2022-10-04T09:19:32.900Z,15.31
2022-10-04T09:20:38.777Z,15.14
2022-10-04T09:21:33.849Z,15.35
2022-10-04T09:22:33.086Z,15.35
2022-10-04T09:23:32.830Z,15.36
2022-10-04T09:24:32.818Z,15.47
2022-10-04T09:25:32.807Z,15.47
2022-10-04T09:26:32.792Z,15.65
2022-10-04T09:27:54.326Z,15.69
2022-10-04T09:28:33.850Z,15.65
2022-10-04T09:29:32.761Z,15.69
2022-10-04T09:30:32.750Z,15.72
2022-10-04T09:31:32.827Z,15.92
2022-10-04T09:32:32.746Z,16.08
2022-10-04T09:33:32.726Z,16.14
2022-10-04T09:34:37.061Z,16.31
2022-10-04T09:35:32.692Z,16.43
2022-10-04T09:36:32.700Z,16.34
2022-10-04T09:37:32.672Z,16.25
2022-10-04T09:38:32.659Z,16.33
2022-10-04T09:39:32.648Z,16.35
2022-10-04T09:40:32.660Z,16.28
2022-10-04T09:41:32.627Z,16.43
2022-10-04T09:42:32.612Z,16.43
2022-10-04T09:43:32.604Z,16.48
2022-10-04T09:44:32.591Z,16.48
2022-10-04T09:45:32.601Z,16.60
2022-10-04T09:46:32.624Z,16.75
2022-10-04T09:47:32.558Z,16.83
2022-10-04T09:48:32.545Z,16.79
2022-10-04T09:49:32.539Z,16.96
2022-10-04T09:50:32.548Z,17.08
2022-10-04T09:51:32.513Z,16.98
2022-10-04T09:52:32.538Z,17.07
2022-10-04T09:53:32.496Z,17.19
2022-10-04T09:54:32.504Z,17.25
2022-10-04T09:55:32.470Z,17.15
2022-10-04T09:56:32.478Z,17.28
2022-10-04T09:57:32.449Z,17.21
2022-10-04T09:58:32.435Z,17.28
2022-10-04T09:59:32.423Z,17.22
2022-10-04T10:00:32.436Z,17.07
2022-10-04T10:01:32.444Z,17.23
2022-10-04T10:02:32.491Z,17.25
2022-10-04T10:03:32.404Z,17.28
2022-10-04T10:04:32.367Z,17.43
2022-10-04T10:05:32.358Z,17.44
2022-10-04T10:06:32.345Z,17.51
2022-10-04T10:07:32.358Z,17.55
2022-10-04T10:08:32.346Z,17.59
2022-10-04T10:09:32.313Z,17.54
2022-10-04T10:10:32.303Z,17.62
2022-10-04T10:11:32.291Z,17.66
2022-10-04T10:12:32.301Z,17.71
2022-10-04T10:13:32.309Z,17.86
2022-10-04T10:14:32.257Z,17.86
2022-10-04T10:15:32.249Z,17.89
2022-10-04T10:16:32.236Z,17.81
2022-10-04T10:17:32.249Z,17.74
2022-10-04T10:18:32.232Z,17.77
2022-10-04T10:19:32.204Z,17.87
2022-10-04T10:20:32.189Z,17.95
2022-10-04T10:21:32.185Z,18.03
2022-10-04T10:22:32.168Z,18.17
2022-10-04T10:23:32.188Z,18.08
2022-10-04T10:24:32.161Z,18.12
2022-10-04T10:25:32.137Z,18.21
2022-10-04T10:26:32.139Z,18.08
2022-10-04T10:27:32.114Z,18.10
2022-10-04T10:28:32.199Z,18.23
2022-10-04T10:29:32.095Z,18.25
2022-10-04T10:30:32.079Z,18.33
2022-10-04T10:31:32.182Z,18.25
2022-10-04T10:32:32.059Z,18.36
2022-10-04T10:33:32.070Z,18.33
2022-10-04T10:34:32.036Z,18.42
2022-10-04T10:35:32.056Z,18.42
2022-10-04T10:36:32.014Z,18.27
2022-10-04T10:37:32.006Z,18.23
2022-10-04T10:38:32.012Z,18.29
2022-10-04T10:39:31.984Z,18.42
2022-10-04T10:40:31.984Z,18.48
2022-10-04T10:41:31.982Z,18.39
2022-10-04T10:42:31.947Z,18.33
2022-10-04T10:43:31.936Z,18.37
2022-10-04T10:44:31.925Z,18.26
2022-10-04T10:45:31.937Z,18.27
2022-10-04T10:46:31.975Z,18.37
2022-10-04T10:47:31.913Z,18.33
2022-10-04T10:48:31.880Z,18.33
2022-10-04T10:49:31.872Z,18.47
2022-10-04T10:50:31.857Z,18.33
2022-10-04T10:51:31.870Z,18.33
2022-10-04T10:52:31.841Z,18.10
2022-10-04T10:53:31.851Z,18.20
2022-10-04T10:54:31.825Z,18.20
2022-10-04T10:55:31.804Z,18.26
2022-10-04T10:56:31.809Z,18.25
2022-10-04T10:57:31.788Z,18.37
2022-10-04T10:58:31.801Z,18.48
2022-10-04T10:59:31.765Z,18.51
2022-10-04T11:00:31.751Z,18.62
2022-10-04T11:01:31.857Z,18.57
2022-10-04T11:02:48.142Z,18.51
2022-10-04T11:03:32.940Z,18.66
2022-10-04T11:04:31.728Z,18.82
2022-10-04T11:05:31.696Z,18.82
2022-10-04T11:06:31.686Z,18.88
2022-10-04T11:07:31.693Z,18.98
2022-10-04T11:08:31.685Z,18.99
2022-10-04T11:09:31.648Z,18.84
2022-10-04T11:10:31.662Z,19.04
2022-10-04T11:11:31.630Z,19.13
2022-10-04T11:12:31.636Z,19.10
2022-10-04T11:13:31.616Z,19.11
2022-10-04T11:14:31.606Z,19.13
2022-10-04T11:15:31.582Z,19.22
2022-10-04T11:16:31.677Z,19.10
2022-10-04T11:17:31.586Z,19.11
2022-10-04T11:18:31.574Z,19.13
2022-10-04T11:19:31.542Z,19.11
2022-10-04T11:20:31.533Z,19.06
2022-10-04T11:21:31.537Z,18.94
2022-10-04T11:22:36.031Z,18.94
2022-10-04T11:23:32.493Z,18.95
2022-10-04T11:24:31.505Z,18.90
2022-10-04T11:25:31.473Z,18.92
2022-10-04T11:26:31.485Z,18.95
2022-10-04T11:27:31.451Z,19.00
2022-10-04T11:28:31.561Z,18.99
2022-10-04T11:29:31.436Z,18.95
2022-10-04T11:30:31.418Z,19.04
2022-10-04T11:31:31.466Z,19.04
2022-10-04T11:32:31.401Z,19.13
2022-10-04T11:33:31.441Z,18.95
2022-10-04T11:34:31.376Z,19.08
2022-10-04T11:35:31.363Z,19.25
2022-10-04T11:36:31.353Z,19.28
2022-10-04T11:37:31.340Z,19.21
2022-10-04T11:38:31.352Z,19.11
2022-10-04T11:39:31.318Z,19.08
2022-10-04T11:40:31.587Z,19.16
2022-10-04T11:41:31.297Z,19.22
2022-10-04T11:42:31.290Z,19.16
2022-10-04T11:43:31.293Z,19.07
2022-10-04T11:44:31.281Z,19.07
2022-10-04T11:45:31.254Z,19.06
2022-10-04T11:46:31.268Z,19.08
2022-10-04T11:47:31.230Z,19.11
2022-10-04T11:48:31.241Z,19.29
2022-10-04T11:49:31.210Z,19.11
2022-10-04T11:50:31.204Z,18.87
2022-10-04T11:51:31.188Z,18.95
2022-10-04T11:52:31.176Z,19.00
2022-10-04T11:53:31.186Z,19.07
2022-10-04T11:54:31.156Z,19.00
2022-10-04T11:55:31.141Z,18.94
2022-10-04T11:56:31.166Z,18.99
2022-10-04T11:57:31.141Z,19.11
2022-10-04T11:58:31.112Z,19.16
2022-10-04T11:59:31.098Z,19.06
2022-10-04T12:00:31.117Z,19.07
2022-10-04T12:01:31.074Z,19.02
2022-10-04T12:02:31.087Z,19.04
2022-10-04T12:03:31.155Z,19.06
2022-10-04T12:04:31.126Z,19.07
2022-10-04T12:05:31.029Z,19.18
2022-10-04T12:06:31.024Z,19.10
2022-10-04T12:07:31.008Z,19.13
2022-10-04T12:08:31.026Z,19.13
2022-10-04T12:09:30.987Z,19.08
2022-10-04T12:10:30.977Z,19.28
2022-10-04T12:11:30.964Z,19.25
2022-10-04T12:12:30.955Z,19.31
2022-10-04T12:13:30.966Z,19.23
2022-10-04T12:14:30.973Z,19.14
2022-10-04T12:15:30.942Z,19.25
2022-10-04T12:16:31.027Z,19.07
2022-10-04T12:17:30.898Z,19.06
2022-10-04T12:18:30.910Z,19.06
2022-10-04T12:19:30.877Z,19.08
2022-10-04T12:20:30.867Z,19.08
2022-10-04T12:21:30.880Z,19.07
2022-10-04T12:22:30.846Z,18.99
2022-10-04T12:23:30.832Z,18.90
2022-10-04T12:24:30.832Z,18.81
2022-10-04T12:25:30.865Z,18.87
2022-10-04T12:26:30.804Z,18.92
2022-10-04T12:27:30.787Z,19.00
2022-10-04T12:28:30.840Z,18.95
2022-10-04T12:29:30.766Z,19.07
2022-10-04T12:30:30.815Z,19.02
2022-10-04T12:31:30.836Z,19.08
2022-10-04T12:32:30.772Z,19.07
2022-10-04T12:33:30.722Z,18.98
2022-10-04T12:34:30.713Z,18.82
2022-10-04T12:35:30.704Z,18.99
2022-10-04T12:36:30.717Z,18.94
2022-10-04T12:37:30.677Z,19.10
2022-10-04T12:38:30.672Z,19.16
2022-10-04T12:39:30.655Z,19.06
2022-10-04T12:40:30.652Z,19.13
2022-10-04T12:41:30.634Z,19.07
2022-10-04T12:42:32.711Z,19.11
2022-10-04T12:43:30.614Z,19.10
2022-10-04T12:44:30.606Z,18.98
2022-10-04T12:45:30.632Z,19.07
2022-10-04T12:46:30.584Z,19.13
2022-10-04T12:47:30.586Z,19.11
2022-10-04T12:48:30.574Z,19.11
2022-10-04T12:49:30.545Z,19.10
2022-10-04T12:50:30.535Z,19.11
2022-10-04T12:51:30.525Z,19.02
2022-10-04T12:52:30.533Z,19.07
2022-10-04T12:53:30.503Z,19.16
2022-10-04T12:54:30.492Z,19.08
2022-10-04T12:55:30.484Z,19.13
2022-10-04T12:56:30.471Z,19.08
2022-10-04T12:57:30.477Z,19.10
2022-10-04T12:58:30.451Z,19.19
2022-10-04T12:59:30.435Z,19.06
2022-10-04T13:00:30.457Z,19.04
2022-10-04T13:01:30.465Z,19.14
2022-10-04T13:02:30.484Z,19.22
2022-10-04T13:03:30.399Z,19.21
2022-10-04T13:04:30.411Z,19.21
2022-10-04T13:05:30.382Z,19.23
2022-10-04T13:06:30.360Z,19.23
2022-10-04T13:07:30.368Z,19.25